createdAt,value
2023-01-26T00:04:57.397Z,96141.11
2023-01-26T00:10:12.649Z,96132.34
2023-01-26T00:15:29.194Z,96129.87
2023-01-26T00:20:50.470Z,96129.64
2023-01-26T00:23:24.526Z,96124.84
2023-01-26T00:25:54.360Z,96120.05
2023-01-26T00:31:08.351Z,96123.48
2023-01-26T00:36:28.773Z,96117.38
2023-01-26T00:42:07.454Z,96117.06
2023-01-26T00:47:25.720Z,96118.47
2023-01-26T00:52:41.991Z,96113.50
2023-01-26T00:58:00.919Z,96111.33
2023-01-26T01:03:19.441Z,96114.78
2023-01-26T01:05:50.545Z,96115.66
2023-01-26T01:08:20.247Z,96108.70
2023-01-26T01:13:32.423Z,96116.34
2023-01-26T01:16:02.358Z,96112.39
2023-01-26T01:18:33.115Z,96118.20
2023-01-26T01:23:43.987Z,96114.05
2023-01-26T01:28:58.985Z,96117.92
2023-01-26T01:34:17.560Z,96108.53
2023-01-26T01:39:29.224Z,96107.77
2023-01-26T01:42:00.340Z,96101.00
2023-01-26T01:47:26.739Z,96100.52
2023-01-26T01:52:44.022Z,96100.09
2023-01-26T01:57:59.023Z,96089.33
2023-01-26T02:03:20.068Z,96089.97
2023-01-26T02:08:35.556Z,96083.09
2023-01-26T02:11:09.103Z,96093.50
2023-01-26T02:16:30.513Z,96090.83
2023-01-26T02:21:47.393Z,96083.09
2023-01-26T02:27:00.619Z,96076.42
2023-01-26T02:29:31.208Z,96076.11
2023-01-26T02:34:50.886Z,96069.47
2023-01-26T02:40:02.923Z,96066.25
2023-01-26T02:42:43.667Z,96060.87
2023-01-26T02:48:05.570Z,96050.27
2023-01-26T02:56:06.190Z,96042.02
2023-01-26T03:01:25.230Z,96041.76
2023-01-26T03:06:41.055Z,96041.20
2023-01-26T03:09:11.099Z,96032.37
2023-01-26T03:11:42.739Z,96033.97
2023-01-26T03:17:00.318Z,96025.70
2023-01-26T03:22:37.974Z,96023.78
2023-01-26T03:27:55.976Z,96023.21
2023-01-26T03:30:25.870Z,96022.45
2023-01-26T03:35:39.021Z,96018.23
2023-01-26T03:41:19.905Z,96019.30
2023-01-26T03:46:59.436Z,96012.08
2023-01-26T03:52:35.265Z,96002.98
2023-01-26T03:57:46.732Z,95997.91
2023-01-26T04:03:29.306Z,96002.97
2023-01-26T04:08:43.593Z,96003.25
2023-01-26T04:11:13.595Z,95992.25
2023-01-26T04:16:54.740Z,95989.88
2023-01-26T04:22:06.084Z,95983.15
2023-01-26T04:24:36.042Z,95984.48
2023-01-26T04:29:56.062Z,95975.41
2023-01-26T04:35:15.033Z,95977.29
2023-01-26T04:40:35.409Z,95972.25
2023-01-26T04:46:03.825Z,95971.17
2023-01-26T04:51:23.481Z,95968.77
2023-01-26T04:53:54.310Z,95960.22
2023-01-26T04:56:27.876Z,95957.56
2023-01-26T05:04:37.633Z,95962.37
2023-01-26T05:09:50.047Z,95955.39
2023-01-26T05:12:34.893Z,95957.53
2023-01-26T05:15:05.047Z,95955.09
2023-01-26T05:20:27.650Z,95950.57
2023-01-26T05:23:00.019Z,95949.67
2023-01-26T05:25:29.782Z,95949.40
2023-01-26T05:27:59.516Z,95938.75
2023-01-26T05:30:29.351Z,95934.75
2023-01-26T05:33:05.801Z,95936.38
2023-01-26T05:38:15.725Z,95931.33
2023-01-26T05:43:35.420Z,95937.48
2023-01-26T05:48:51.043Z,95931.34
2023-01-26T05:54:08.673Z,95938.31
2023-01-26T05:59:26.977Z,95935.66
2023-01-26T06:04:46.530Z,95941.27
2023-01-26T06:09:58.984Z,95939.93
2023-01-26T06:15:14.627Z,95948.73
2023-01-26T06:20:30.554Z,95952.19
2023-01-26T06:23:02.588Z,95954.30
2023-01-26T06:28:21.635Z,95956.42
2023-01-26T06:33:51.216Z,95955.34
2023-01-26T06:36:21.043Z,95945.39
2023-01-26T06:41:35.960Z,95951.88
2023-01-26T06:44:06.640Z,95950.27
2023-01-26T06:49:17.416Z,95940.93
2023-01-26T06:52:00.705Z,95941.97
2023-01-26T06:54:30.683Z,95943.58
2023-01-26T06:59:41.158Z,95942.76
2023-01-26T07:05:03.206Z,95942.78
2023-01-26T07:07:33.010Z,95948.06
2023-01-26T07:12:51.441Z,95943.00
2023-01-26T07:15:21.165Z,95942.97
2023-01-26T07:17:51.824Z,95942.41
2023-01-26T07:20:21.621Z,95939.71
2023-01-26T07:25:40.065Z,95938.96
2023-01-26T07:31:01.612Z,95935.51
2023-01-26T07:36:22.313Z,95947.20
2023-01-26T07:38:52.074Z,95946.14
2023-01-26T07:44:05.710Z,95948.78
2023-01-26T07:46:35.671Z,95944.22
2023-01-26T07:51:51.111Z,95943.98
2023-01-26T07:57:10.631Z,95934.72
2023-01-26T08:02:28.930Z,95938.23
2023-01-26T08:07:48.090Z,95936.13
2023-01-26T08:13:07.178Z,95936.67
2023-01-26T08:18:25.549Z,95931.23
2023-01-26T08:23:37.260Z,95943.63
2023-01-26T08:28:56.214Z,95954.84
2023-01-26T08:31:28.467Z,95947.72
2023-01-26T08:36:37.797Z,95941.78
2023-01-26T08:41:48.913Z,95948.17
2023-01-26T08:47:05.764Z,95944.27
2023-01-26T08:52:23.569Z,95943.44
2023-01-26T08:57:38.436Z,95948.22
2023-01-26T09:00:10.917Z,95944.45
2023-01-26T09:05:31.769Z,95937.08
2023-01-26T09:10:45.262Z,95934.48
2023-01-26T09:16:23.334Z,95943.30
2023-01-26T09:18:53.613Z,95940.91
2023-01-26T09:21:24.695Z,95943.81
2023-01-26T09:26:38.807Z,95943.59
2023-01-26T09:31:48.219Z,95944.09
2023-01-26T09:34:18.059Z,95951.00
2023-01-26T09:39:35.507Z,95942.48
2023-01-26T09:44:53.839Z,95944.39
2023-01-26T09:50:14.668Z,95953.70
2023-01-26T09:55:31.580Z,95951.90
2023-01-26T10:00:53.501Z,95944.71
2023-01-26T10:03:27.582Z,95946.34
2023-01-26T10:06:00.676Z,95950.05
2023-01-26T10:08:30.601Z,95947.09
2023-01-26T10:11:02.943Z,95943.33
2023-01-26T10:16:19.099Z,95939.09
2023-01-26T10:21:34.566Z,95935.31
2023-01-26T10:24:05.921Z,95943.03
2023-01-26T10:29:36.860Z,95940.41
2023-01-26T10:32:07.522Z,95936.69
2023-01-26T10:37:30.379Z,95926.30
2023-01-26T10:42:58.527Z,95925.77
2023-01-26T10:48:20.842Z,95924.43
2023-01-26T10:53:37.462Z,95924.91
2023-01-26T10:58:57.618Z,95926.00
2023-01-26T11:01:28.485Z,95925.72
2023-01-26T11:04:07.842Z,95925.20
2023-01-26T11:09:31.635Z,95915.89
2023-01-26T11:14:54.333Z,95912.41
2023-01-26T11:23:29.379Z,95913.19
2023-01-26T11:29:39.686Z,95911.55
2023-01-26T11:35:08.777Z,95906.53
2023-01-26T11:40:37.861Z,95912.14
2023-01-26T11:46:24.464Z,95907.85
2023-01-26T11:51:52.975Z,95899.85
2023-01-26T11:54:53.941Z,95895.56
2023-01-26T12:00:30.367Z,95896.31
2023-01-26T12:03:16.360Z,95898.44
2023-01-26T12:08:40.773Z,95893.94
2023-01-26T12:13:53.603Z,95883.77
2023-01-26T12:19:18.409Z,95871.27
2023-01-26T12:25:08.166Z,95873.09
2023-01-26T12:30:03.130Z,95877.41
2023-01-26T12:35:18.295Z,95868.84
2023-01-26T12:40:40.963Z,95861.13
2023-01-26T12:46:06.788Z,95852.83
2023-01-26T12:51:26.908Z,95857.89
2023-01-26T12:54:00.052Z,95853.09
2023-01-26T12:56:32.725Z,95856.31
2023-01-26T12:59:07.414Z,95857.91
2023-01-26T13:04:22.712Z,95858.45
2023-01-26T13:10:13.764Z,95848.55
2023-01-26T13:15:31.281Z,95848.56
2023-01-26T13:20:49.214Z,95849.61
2023-01-26T13:23:44.566Z,95846.97
2023-01-26T13:29:32.336Z,95843.48
2023-01-26T13:34:43.519Z,95840.56
2023-01-26T13:42:22.935Z,95839.20
2023-01-26T13:44:56.068Z,95835.47
2023-01-26T13:50:29.744Z,95835.22
2023-01-26T13:55:42.353Z,95839.73
2023-01-26T13:58:15.813Z,95842.66
2023-01-26T14:03:35.156Z,95835.73
2023-01-26T14:08:55.641Z,95833.33
2023-01-26T14:14:34.067Z,95838.43
2023-01-26T14:19:43.520Z,95830.41
2023-01-26T14:22:15.858Z,95827.71
2023-01-26T14:30:29.971Z,95827.69
2023-01-26T14:33:03.546Z,95821.56
2023-01-26T14:35:34.926Z,95833.79
2023-01-26T14:41:02.422Z,95831.13
2023-01-26T14:46:25.878Z,95827.45
2023-01-26T14:48:59.241Z,95832.26
2023-01-26T15:02:40.483Z,95846.69
2023-01-26T15:08:00.867Z,95848.83
2023-01-26T15:13:26.658Z,95859.77
2023-01-26T15:19:01.418Z,95854.71
2023-01-26T15:27:14.979Z,95860.27
2023-01-26T15:32:45.824Z,95862.80
2023-01-26T15:38:14.071Z,95867.92
2023-01-26T15:40:44.012Z,95867.95
2023-01-26T15:46:01.597Z,95869.56
2023-01-26T15:51:14.714Z,95864.23
2023-01-26T15:56:31.741Z,95873.07
2023-01-26T16:01:51.259Z,95867.00
2023-01-26T16:04:23.346Z,95871.21
2023-01-26T16:06:53.415Z,95873.38
2023-01-26T16:09:24.770Z,95870.44
2023-01-26T16:17:31.590Z,95880.59
2023-01-26T16:22:44.465Z,95874.42
2023-01-26T16:28:04.195Z,95879.98
2023-01-26T16:30:34.977Z,95878.89
2023-01-26T16:35:53.317Z,95875.22
2023-01-26T16:41:18.529Z,95875.78
2023-01-26T16:43:49.386Z,95882.41
2023-01-26T16:46:19.475Z,95880.83
2023-01-26T16:48:49.561Z,95875.46
2023-01-26T16:54:11.363Z,95881.09
2023-01-26T16:59:34.061Z,95883.23
2023-01-26T17:04:53.381Z,95874.41
2023-01-26T17:10:13.966Z,95877.32
2023-01-26T17:15:32.212Z,95877.84
2023-01-26T17:20:51.520Z,95880.23
2023-01-26T17:26:09.783Z,95880.47
2023-01-26T17:31:32.614Z,95877.02
2023-01-26T17:36:45.986Z,95877.81
2023-01-26T17:39:19.985Z,95879.93
2023-01-26T17:41:49.684Z,95882.55
2023-01-26T17:47:10.924Z,95882.47
2023-01-26T17:52:31.243Z,95880.13
2023-01-26T17:57:47.012Z,95885.23
2023-01-26T18:02:59.633Z,95884.09
2023-01-26T18:08:15.862Z,95878.52
2023-01-26T18:10:47.338Z,95885.15
2023-01-26T18:16:10.143Z,95879.14
2023-01-26T18:21:39.932Z,95889.14
2023-01-26T18:26:56.952Z,95876.40
2023-01-26T18:32:15.317Z,95873.56
2023-01-26T18:34:45.126Z,95877.50
2023-01-26T18:40:00.964Z,95867.14
2023-01-26T18:45:18.938Z,95875.17
2023-01-26T18:50:36.549Z,95870.63
2023-01-26T18:58:40.419Z,95883.45
2023-01-26T19:04:09.093Z,95875.69
2023-01-26T19:09:34.520Z,95880.47
2023-01-26T19:17:37.841Z,95868.44
2023-01-26T19:20:12.773Z,95874.56
2023-01-26T19:25:33.600Z,95867.16
2023-01-26T19:30:45.103Z,95863.92
2023-01-26T19:33:28.787Z,95864.00
2023-01-26T19:36:00.298Z,95862.37
2023-01-26T19:41:21.971Z,95860.00
2023-01-26T19:46:48.314Z,95854.37
2023-01-26T19:52:00.953Z,95850.92
2023-01-26T19:54:30.776Z,95853.89
2023-01-26T19:59:53.941Z,95854.16
2023-01-26T20:02:23.788Z,95850.15
2023-01-26T20:07:41.918Z,95852.28
2023-01-26T20:10:13.692Z,95862.07
2023-01-26T20:12:43.476Z,95857.88
2023-01-26T20:15:14.427Z,95855.50
2023-01-26T20:20:58.878Z,95863.41
2023-01-26T20:26:17.869Z,95855.31
2023-01-26T20:31:33.509Z,95852.95
2023-01-26T20:36:49.652Z,95847.70
2023-01-26T20:42:07.847Z,95857.58
2023-01-26T20:47:23.960Z,95849.32
2023-01-26T20:52:39.002Z,95859.50
2023-01-26T20:57:52.778Z,95858.39
2023-01-26T21:03:14.479Z,95851.06
2023-01-26T21:05:44.271Z,95860.13
2023-01-26T21:11:07.400Z,95845.80
2023-01-26T21:16:18.696Z,95845.28
2023-01-26T21:18:49.511Z,95840.48
2023-01-26T21:24:06.656Z,95834.04
2023-01-26T21:29:17.397Z,95830.89
2023-01-26T21:34:27.437Z,95830.09
2023-01-26T21:36:57.236Z,95835.70
2023-01-26T21:39:27.335Z,95833.59
2023-01-26T21:41:58.275Z,95833.33
2023-01-26T21:47:22.461Z,95832.53
2023-01-26T21:52:51.670Z,95831.19
2023-01-26T21:55:21.389Z,95827.72
2023-01-26T22:00:55.620Z,95828.23
2023-01-26T22:06:15.115Z,95825.30
2023-01-26T22:08:46.429Z,95825.00
2023-01-26T22:11:16.172Z,95826.61
2023-01-26T22:16:39.313Z,95831.40
2023-01-26T22:21:56.689Z,95832.76
2023-01-26T22:27:18.754Z,95825.25
2023-01-26T22:32:34.764Z,95825.00
2023-01-26T22:37:48.940Z,95817.27
2023-01-26T22:40:20.276Z,95826.58
2023-01-26T22:45:31.432Z,95828.73
2023-01-26T22:48:02.464Z,95825.25
2023-01-26T22:53:21.455Z,95814.83
2023-01-26T22:58:56.719Z,95814.31
2023-01-26T23:03:55.838Z,95815.38
2023-01-26T23:06:26.531Z,95814.83
2023-01-26T23:11:41.798Z,95810.35
2023-01-26T23:16:56.879Z,95807.89
2023-01-26T23:22:10.740Z,95806.83
2023-01-26T23:27:29.210Z,95809.77
2023-01-26T23:32:42.460Z,95810.52
2023-01-26T23:38:04.390Z,95805.76
2023-01-26T23:40:35.827Z,95806.58
2023-01-26T23:43:16.417Z,95808.13
2023-01-26T23:45:39.888Z,95805.95
2023-01-26T23:50:58.679Z,95795.05
2023-01-26T23:56:18.851Z,95805.67
2023-01-26T23:58:48.370Z,95798.97
